Time,TemperatureF,DewpointF,PressureIn,WindDirection,WindDirectionDegrees,WindSpeedMPH,WindSpeedGustMPH,Humidity,HourlyPrecipIn,Conditions,Clouds,dailyrainin,SoftwareType,DateUTC
2014-01-09 00:03:00,26.4,22.0,30.51,North,352,1.0,1.0,84,0.00,,,0.00,weatherlink.com 1.10,2014-01-09 05:03:00,
2014-01-09 00:18:00,26.4,22.0,30.51,NNW,333,1.0,1.0,84,0.00,,,0.00,weatherlink.com 1.10,2014-01-09 05:18:00,
2014-01-09 00:33:00,26.7,23.0,30.51,NNW,333,0.0,1.0,84,0.00,,,0.00,weatherlink.com 1.10,2014-01-09 05:33:00,
2014-01-09 00:48:00,26.9,23.0,30.51,NW,322,0.0,2.0,85,0.00,,,0.00,weatherlink.com 1.10,2014-01-09 05:48:00,
2014-01-09 01:03:00,27.0,23.0,30.51,NW,310,0.0,2.0,85,0.00,,,0.00,weatherlink.com 1.10,2014-01-09 06:03:00,
2014-01-09 01:18:00,27.1,23.0,30.51,NNW,333,1.0,1.0,85,0.00,,,0.00,weatherlink.com 1.10,2014-01-09 06:18:00,
2014-01-09 01:33:00,27.5,24.0,30.51,NW,309,2.0,3.0,86,0.00,,,0.00,weatherlink.com 1.10,2014-01-09 06:33:00,
2014-01-09 01:48:00,27.6,24.0,30.52,North,355,0.0,2.0,86,0.00,,,0.00,weatherlink.com 1.10,2014-01-09 06:48:00,
2014-01-09 02:03:00,27.7,24.0,30.52,NNW,342,1.0,2.0,87,0.00,,,0.00,weatherlink.com 1.10,2014-01-09 07:03:00,
2014-01-09 02:18:00,27.6,24.0,30.52,North,352,1.0,1.0,87,0.00,,,0.00,weatherlink.com 1.10,2014-01-09 07:18:00,
2014-01-09 02:33:00,27.4,24.0,30.53,WNW,303,0.0,3.0,86,0.00,,,0.00,weatherlink.com 1.10,2014-01-09 07:33:00,
2014-01-09 02:48:00,27.6,24.0,30.53,North,359,3.0,3.0,85,0.00,,,0.00,weatherlink.com 1.10,2014-01-09 07:48:00,
2014-01-09 03:03:00,28.0,24.0,30.53,NNW,330,1.0,3.0,85,0.00,,,0.00,weatherlink.com 1.10,2014-01-09 08:03:00,
2014-01-09 03:18:00,28.2,24.0,30.54,WNW,297,1.0,5.0,85,0.00,,,0.00,weatherlink.com 1.10,2014-01-09 08:18:00,
2014-01-09 03:33:00,28.2,24.0,30.54,NNW,336,1.0,1.0,84,0.00,,,0.00,weatherlink.com 1.10,2014-01-09 08:33:00,
2014-01-09 03:48:00,27.9,24.0,30.54,NNW,336,1.0,2.0,85,0.00,,,0.00,weatherlink.com 1.10,2014-01-09 08:48:00,
2014-01-09 04:03:00,27.4,24.0,30.55,NNW,343,1.0,1.0,86,0.00,,,0.00,weatherlink.com 1.10,2014-01-09 09:03:00,
2014-01-09 04:18:00,27.2,24.0,30.55,NNW,336,2.0,2.0,87,0.00,,,0.00,weatherlink.com 1.10,2014-01-09 09:18:00,
2014-01-09 04:33:00,27.2,24.0,30.55,North,353,1.0,2.0,87,0.00,,,0.00,weatherlink.com 1.10,2014-01-09 09:33:00,
2014-01-09 04:48:00,27.3,24.0,30.55,NE,39,2.0,3.0,86,0.00,,,0.00,weatherlink.com 1.10,2014-01-09 09:48:00,
2014-01-09 05:03:00,27.6,24.0,30.55,NNE,25,2.0,3.0,85,0.00,,,0.00,weatherlink.com 1.10,2014-01-09 10:03:00,
2014-01-09 05:18:00,27.5,23.0,30.56,NNE,29,3.0,4.0,84,0.00,,,0.00,weatherlink.com 1.10,2014-01-09 10:18:00,
2014-01-09 05:33:00,27.6,23.0,30.56,NE,41,2.0,5.0,83,0.00,,,0.00,weatherlink.com 1.10,2014-01-09 10:33:00,
2014-01-09 05:48:00,27.5,23.0,30.57,NNE,25,2.0,3.0,83,0.00,,,0.00,weatherlink.com 1.10,2014-01-09 10:48:00,
2014-01-09 06:03:00,27.4,23.0,30.57,NNE,23,2.0,3.0,84,0.00,,,0.00,weatherlink.com 1.10,2014-01-09 11:03:00,
2014-01-09 06:18:00,27.3,23.0,30.57,NNE,18,2.0,3.0,84,0.00,,,0.00,weatherlink.com 1.10,2014-01-09 11:18:00,
2014-01-09 06:33:00,26.9,23.0,30.57,NNE,16,2.0,3.0,86,0.00,,,0.00,weatherlink.com 1.10,2014-01-09 11:33:00,
2014-01-09 06:49:00,27.0,23.0,30.58,NNE,20,3.0,4.0,85,0.00,,,0.00,weatherlink.com 1.10,2014-01-09 11:49:00,
2014-01-09 07:04:00,27.0,23.0,30.59,North,1,1.0,2.0,85,0.00,,,0.00,weatherlink.com 1.10,2014-01-09 12:04:00,
2014-01-09 07:19:00,26.4,23.0,30.60,North,354,1.0,2.0,86,0.00,,,0.00,weatherlink.com 1.10,2014-01-09 12:19:00,
2014-01-09 07:34:00,26.0,23.0,30.60,NNE,12,0.0,2.0,87,0.00,,,0.00,weatherlink.com 1.10,2014-01-09 12:34:00,
2014-01-09 07:49:00,26.5,23.0,30.61,ENE,57,1.0,2.0,87,0.00,,,0.00,weatherlink.com 1.10,2014-01-09 12:49:00,
2014-01-09 08:04:00,27.6,24.0,30.62,NE,52,5.0,6.0,85,0.00,,,0.00,weatherlink.com 1.10,2014-01-09 13:04:00,
2014-01-09 08:19:00,28.3,24.0,30.63,NE,37,2.0,5.0,83,0.00,,,0.00,weatherlink.com 1.10,2014-01-09 13:19:00,
2014-01-09 08:34:00,28.9,24.0,30.64,ENE,68,6.0,6.0,81,0.00,,,0.00,weatherlink.com 1.10,2014-01-09 13:34:00,
2014-01-09 08:49:00,29.3,24.0,30.65,East,84,9.0,9.0,81,0.00,,,0.00,weatherlink.com 1.10,2014-01-09 13:49:00,
2014-01-09 09:04:00,29.3,24.0,30.65,ENE,72,6.0,9.0,79,0.00,,,0.00,weatherlink.com 1.10,2014-01-09 14:04:00,
2014-01-09 09:19:00,29.3,23.0,30.66,East,91,9.0,9.0,78,0.00,,,0.00,weatherlink.com 1.10,2014-01-09 14:19:00,
2014-01-09 09:34:00,29.3,23.0,30.66,ESE,103,9.0,10.0,77,0.00,,,0.00,weatherlink.com 1.10,2014-01-09 14:34:00,
2014-01-09 09:49:00,29.5,23.0,30.67,East,98,8.0,9.0,76,0.00,,,0.00,weatherlink.com 1.10,2014-01-09 14:49:00,
2014-01-09 10:04:00,29.6,23.0,30.67,East,82,10.0,10.0,75,0.00,,,0.00,weatherlink.com 1.10,2014-01-09 15:04:00,
2014-01-09 10:19:00,29.7,22.0,30.67,East,80,11.0,12.0,73,0.00,,,0.00,weatherlink.com 1.10,2014-01-09 15:19:00,
2014-01-09 10:34:00,29.8,20.0,30.68,ENE,68,9.0,11.0,68,0.00,,,0.00,weatherlink.com 1.10,2014-01-09 15:34:00,
2014-01-09 10:49:00,30.1,21.0,30.67,ENE,75,7.0,12.0,68,0.00,,,0.00,weatherlink.com 1.10,2014-01-09 15:49:00,
2014-01-09 11:04:00,30.0,20.0,30.67,East,79,6.0,9.0,67,0.00,,,0.00,weatherlink.com 1.10,2014-01-09 16:04:00,
2014-01-09 11:19:00,30.0,21.0,30.66,ENE,69,5.0,7.0,69,0.00,,,0.00,weatherlink.com 1.10,2014-01-09 16:19:00,
2014-01-09 11:34:00,30.2,21.0,30.65,ENE,77,6.0,6.0,69,0.00,,,0.00,weatherlink.com 1.10,2014-01-09 16:34:00,
2014-01-09 12:04:00,30.7,21.0,30.63,ENE,75,5.0,6.0,68,0.00,,,0.00,weatherlink.com 1.10,2014-01-09 17:04:00,
2014-01-09 12:20:00,31.1,22.0,30.63,East,82,5.0,5.0,68,0.00,,,0.00,weatherlink.com 1.10,2014-01-09 17:20:00,
2014-01-09 13:20:00,32.1,22.0,30.60,ENE,72,6.0,6.0,67,0.00,,,0.00,weatherlink.com 1.10,2014-01-09 18:20:00,
2014-01-09 13:35:00,32.6,22.0,30.61,ENE,78,5.0,5.0,64,0.00,,,0.00,weatherlink.com 1.10,2014-01-09 18:35:00,
2014-01-09 13:50:00,33.0,21.0,30.60,East,85,4.0,4.0,61,0.00,,,0.00,weatherlink.com 1.10,2014-01-09 18:50:00,
2014-01-09 14:05:00,32.9,21.0,30.60,ENE,74,5.0,5.0,61,0.00,,,0.00,weatherlink.com 1.10,2014-01-09 19:05:00,
2014-01-09 14:35:00,32.7,21.0,30.60,ENE,68,3.0,3.0,63,0.00,,,0.00,weatherlink.com 1.10,2014-01-09 19:35:00,
2014-01-09 15:05:00,33.0,22.0,30.61,NE,54,2.0,4.0,64,0.00,,,0.00,weatherlink.com 1.10,2014-01-09 20:05:00,
2014-01-09 15:20:00,33.5,22.0,30.61,ENE,63,0.0,4.0,62,0.00,,,0.00,weatherlink.com 1.10,2014-01-09 20:20:00,
2014-01-09 16:20:00,34.0,22.0,30.62,ENE,67,1.0,2.0,62,0.00,,,0.00,weatherlink.com 1.10,2014-01-09 21:20:00,
2014-01-09 16:35:00,33.4,23.0,30.62,ENE,66,0.0,1.0,66,0.00,,,0.00,weatherlink.com 1.10,2014-01-09 21:35:00,
2014-01-09 17:50:00,29.3,22.0,30.60,ESE,104,1.0,1.0,75,0.00,,,0.00,weatherlink.com 1.10,2014-01-09 22:50:00,
2014-01-09 18:35:00,28.0,23.0,30.61,WSW,252,0.0,1.0,80,0.00,,,0.00,weatherlink.com 1.10,2014-01-09 23:35:00,
2014-01-09 19:20:00,27.4,22.0,30.59,NNW,336,0.0,2.0,80,0.00,,,0.00,weatherlink.com 1.10,2014-01-10 00:20:00,
2014-01-09 19:35:00,27.7,22.0,30.60,NNW,329,0.0,1.0,79,0.00,,,0.00,weatherlink.com 1.10,2014-01-10 00:35:00,
2014-01-09 19:50:00,28.3,24.0,30.60,ESE,105,0.0,1.0,84,0.00,,,0.00,weatherlink.com 1.10,2014-01-10 00:50:00,
2014-01-09 20:05:00,28.2,24.0,30.61,East,99,0.0,1.0,83,0.00,,,0.00,weatherlink.com 1.10,2014-01-10 01:05:00,
2014-01-09 20:20:00,27.7,23.0,30.62,SSW,211,1.0,1.0,81,0.00,,,0.00,weatherlink.com 1.10,2014-01-10 01:20:00,
2014-01-09 20:35:00,27.5,22.0,30.62,West,275,0.0,1.0,81,0.00,,,0.00,weatherlink.com 1.10,2014-01-10 01:35:00,
2014-01-09 20:50:00,26.9,22.0,30.62,West,275,1.0,1.0,81,0.00,,,0.00,weatherlink.com 1.10,2014-01-10 01:50:00,
2014-01-09 21:05:00,27.0,22.0,30.62,NW,314,0.0,2.0,81,0.00,,,0.00,weatherlink.com 1.10,2014-01-10 02:05:00,
2014-01-09 21:20:00,27.4,22.0,30.61,NW,315,0.0,1.0,80,0.00,,,0.00,weatherlink.com 1.10,2014-01-10 02:20:00,
2014-01-09 21:35:00,27.6,22.0,30.62,NW,314,0.0,1.0,80,0.00,,,0.00,weatherlink.com 1.10,2014-01-10 02:35:00,
2014-01-09 21:50:00,27.8,23.0,30.62,WNW,302,0.0,1.0,81,0.00,,,0.00,weatherlink.com 1.10,2014-01-10 02:50:00,
2014-01-09 22:05:00,27.7,23.0,30.62,WNW,302,0.0,0.0,82,0.00,,,0.00,weatherlink.com 1.10,2014-01-10 03:05:00,
2014-01-09 22:20:00,27.5,22.0,30.61,WNW,291,0.0,0.0,81,0.00,,,0.00,weatherlink.com 1.10,2014-01-10 03:20:00,
2014-01-09 22:35:00,27.3,22.0,30.61,WNW,290,0.0,0.0,81,0.00,,,0.00,weatherlink.com 1.10,2014-01-10 03:35:00,
2014-01-09 22:50:00,27.4,23.0,30.61,NNW,338,1.0,1.0,83,0.00,,,0.00,weatherlink.com 1.10,2014-01-10 03:50:00,
2014-01-09 23:05:00,27.9,24.0,30.59,North,349,0.0,1.0,86,0.00,,,0.00,weatherlink.com 1.10,2014-01-10 04:05:00,
2014-01-09 23:20:00,28.7,25.0,30.58,NNE,32,0.0,1.0,85,0.00,,,0.00,weatherlink.com 1.10,2014-01-10 04:20:00,
2014-01-09 23:35:00,28.8,25.0,30.57,NNW,327,0.0,2.0,85,0.00,,,0.00,weatherlink.com 1.10,2014-01-10 04:35:00,
2014-01-09 23:50:00,29.2,25.0,30.57,NNW,327,0.0,0.0,84,0.00,,,0.00,weatherlink.com 1.10,2014-01-10 04:50:00,